Flight Track Log - Related Links

Times and Time Zones

All times are in EDT time to prevent confusion due to time zone crossing. See the ASQ4233 flight status page for this flight to view local times or setup timezone preferences in your user account.

Time Position Orientation Groundspeed Altitude Reporting Facility
EDT Latitude Longitude Course Direction KTS MPH feet Rate Location/Type
Mon 09:47:13 AM 44.3992 -73.0967 179° South 175 201 5,000  Level Boston Center
Mon 09:48:00 AM 44.2589 -73.2164 196° South  Level FlightAware
Mon 09:48:13 AM 44.3386 -73.1222 197° South 202 232 6,800  Level Boston Center
Mon 09:49:00 AM 44.1935 -73.2516 190° South  Level FlightAware
Mon 09:49:13 AM 44.2758 -73.1506 198° South 239 275 9,000  Level Boston Center
Mon 09:50:00 AM 44.1235 -73.2691 190° South  Level FlightAware
Mon 09:50:13 AM 44.2069 -73.1814 198° South 258 297 10,900  Level Boston Center
Mon 09:51:00 AM 44.0539 -73.2885 196° South  Level FlightAware
Mon 09:51:13 AM 44.1275 -73.2153 197° South 285 328 11,900  Level Boston Center
Mon 09:52:13 AM 44.0397 -73.2544 198° South 321 369 13,100 1,150 Climbing Boston Center
Mon 09:53:13 AM 43.9497 -73.2936 197° South 339 390 14,200 1,300 Climbing Boston Center
Mon 09:54:13 AM 43.8431 -73.3411 198° South 363 418 15,700 1,450 Climbing Boston Center
Mon 09:55:13 AM 43.7469 -73.3828 197° South 368 423 17,100 1,200 Climbing Boston Center
Mon 09:56:13 AM 43.6592 -73.4158 195° South 368 423 18,100 1,100 Climbing Boston Center
Mon 09:57:13 AM 43.5586 -73.4600 198° South 368 423 19,300 1,150 Climbing Boston Center
Mon 09:58:13 AM 43.4603 -73.5042 198° South 368 423 20,400 1,150 Climbing Boston Center
Mon 09:59:13 AM 43.3558 -73.5450 196° South 379 436 21,600 800 Climbing Boston Center
Mon 10:00:13 AM 43.2533 -73.5917 198° South 385 443 22,000 100 Climbing Boston Center
Mon 10:01:13 AM 43.1422 -73.6381 197° South 397 457 21,800 -1,100 Descending Boston Center
Mon 10:02:13 AM 43.0231 -73.6897 198° South 411 473 19,800 -1,950 Descending Boston Center
Mon 10:03:13 AM 42.9267 -73.7275 196° South 405 466 17,900 -1,800 Descending Boston Center
Mon 10:04:13 AM 42.8136 -73.7789 198° South 396 456 16,200 -900 Descending Boston Center
Mon 10:05:13 AM 42.7172 -73.8247 199° South 386 444 16,100 -100 Descending Boston Center
Mon 10:06:13 AM 42.6144 -73.8675 197° South 381 438 16,000  Descending Boston Center
Mon 10:07:13 AM 42.5097 -73.9103 197° South 395 455 16,100 50 Climbing Boston Center
Mon 10:08:13 AM 42.4069 -73.9586 199° South 395 455 16,100  Level Boston Center
Mon 10:09:13 AM 42.3064 -74.0008 197° South 390 449 16,100 -50 Level Boston Center
Mon 10:10:13 AM 42.2056 -74.0461 198° South 385 443 16,000 -100 Descending Boston Center
Mon 10:11:13 AM 42.1050 -74.0883 197° South 385 443 15,900  Descending Boston Center
Mon 10:12:13 AM 42.0083 -74.1333 199° South 385 443 16,000 -250 Climbing Boston Center
Mon 10:13:13 AM 41.9183 -74.1728 198° South 385 443 15,400 -1,250 Descending Boston Center
Mon 10:14:13 AM 41.8133 -74.2172 198° South 373 429 13,500 -1,850 Descending Boston Center
Mon 10:15:13 AM 41.7294 -74.2567 199° South 368 423 11,700 -1,550 Descending Boston Center
Mon 10:16:13 AM 41.6369 -74.2956 197° South 347 399 10,400 -1,250 Descending Boston Center
Mon 10:17:13 AM 41.5719 -74.3242 198° South 296 341 9,200 -1,400 Descending Boston Center
Mon 10:18:13 AM 41.4942 -74.3581 198° South 273 314 7,600 -717 Descending Boston Center
Mon 10:20:17 AM 41.3667 -74.4167 199° South 248 285 7,000 -476 Descending New TRACON
Mon 10:21:22 AM 41.2833 -74.4500 197° South 240 276 6,100 -480 Descending New TRACON
Mon 10:22:22 AM 41.2333 -74.4333 166° South 246 283 6,000 -261 Descending New TRACON
Mon 10:23:17 AM 41.1833 -74.3833 143° Southeast 248 285 5,600 -522 Descending New TRACON
Mon 10:24:17 AM 41.1333 -74.3167 135° Southeast 238 274 5,000 -300 Descending New TRACON
Mon 10:25:17 AM 41.0667 -74.2833 159° South 235 270 5,000  Level New TRACON
Mon 10:26:17 AM 41.0167 -74.2333 143° Southeast 239 275 5,000 -450 Level New TRACON
Mon 10:27:17 AM 40.9667 -74.1833 143° Southeast 233 268 4,100 -500 Descending New TRACON
Mon 10:28:17 AM 40.9167 -74.1333 143° Southeast 220 253 4,000 -432 Descending New TRACON
Mon 10:29:22 AM 40.8667 -74.1000 153° Southeast 167 192 3,200 -571 Descending New TRACON
Mon 10:30:23 AM 40.8333 -74.0833 159° South 170 196 2,800 -650 Descending New TRACON
Mon 10:31:22 AM 40.7833 -74.1000 194° South 170 196 1,900 -915 Descending New TRACON

Login

Don't have an account? Register now (free) for customized features, flight alerts, and more!